createdAt,value
2023-04-05T00:00:15.888Z,46.78
2023-04-05T00:03:24.346Z,46.27
2023-04-05T00:06:33.502Z,47.32
2023-04-05T00:09:38.990Z,46.87
2023-04-05T00:12:45.392Z,46.83
2023-04-05T00:15:52.524Z,47.17
2023-04-05T00:19:02.400Z,47.40
2023-04-05T00:22:11.516Z,47.07
2023-04-05T00:25:17.796Z,46.73
2023-04-05T00:28:23.485Z,47.68
2023-04-05T00:31:29.770Z,47.06
2023-04-05T00:34:39.041Z,47.69
2023-04-05T00:37:46.860Z,48.44
2023-04-05T00:40:52.397Z,49.22
2023-04-05T00:44:00.161Z,48.30
2023-04-05T00:47:06.868Z,48.50
2023-04-05T00:50:16.568Z,49.51
2023-04-05T00:53:23.870Z,49.02
2023-04-05T00:56:31.255Z,48.47
2023-04-05T00:59:36.705Z,48.63
2023-04-05T01:02:52.196Z,48.56
2023-04-05T01:06:20.048Z,49.89
2023-04-05T01:09:43.988Z,49.10
2023-04-05T01:12:51.295Z,48.94
2023-04-05T01:15:56.778Z,49.29
2023-04-05T01:19:04.477Z,48.43
2023-04-05T01:22:59.803Z,49.21
2023-04-05T01:27:02.890Z,49.16
2023-04-05T01:30:23.851Z,49.85
2023-04-05T01:33:47.521Z,50.73
2023-04-05T01:36:59.341Z,50.31
2023-04-05T01:40:08.857Z,50.06
2023-04-05T01:43:19.377Z,49.19
2023-04-05T01:46:28.612Z,49.07
2023-04-05T01:49:34.186Z,48.95
2023-04-05T01:52:41.041Z,49.11
2023-04-05T01:55:46.638Z,48.38
2023-04-05T01:58:53.003Z,49.06
2023-04-05T02:02:01.537Z,48.92
2023-04-05T02:05:08.582Z,48.82
2023-04-05T02:08:14.970Z,48.83
2023-04-05T02:11:21.494Z,49.00
2023-04-05T02:14:28.632Z,48.01
2023-04-05T02:17:39.577Z,48.90
2023-04-05T02:20:45.241Z,47.89
2023-04-05T02:23:51.568Z,48.01
2023-04-05T02:26:57.009Z,48.20
2023-04-05T02:30:04.761Z,48.31
2023-04-05T02:33:13.024Z,48.45
2023-04-05T02:36:19.459Z,48.09
2023-04-05T02:39:25.208Z,47.24
2023-04-05T02:42:31.540Z,48.39
2023-04-05T02:45:37.169Z,48.06
2023-04-05T02:48:47.627Z,47.42
2023-04-05T02:51:56.152Z,47.63
2023-04-05T02:55:02.991Z,47.63
2023-04-05T02:58:10.494Z,46.83
2023-04-05T03:01:24.286Z,47.98
2023-04-05T03:04:34.677Z,47.59
2023-04-05T03:07:42.888Z,48.49
2023-04-05T03:10:51.327Z,48.53
2023-04-05T03:13:57.656Z,48.08
2023-04-05T03:17:24.258Z,47.38
2023-04-05T03:20:41.773Z,48.13
2023-04-05T03:23:55.620Z,48.78
2023-04-05T03:27:08.086Z,47.91
2023-04-05T03:30:21.634Z,49.39
2023-04-05T03:33:34.270Z,49.41
2023-04-05T03:36:48.047Z,48.57
2023-04-05T03:40:15.321Z,48.05
2023-04-05T03:43:20.768Z,49.20
2023-04-05T03:46:27.448Z,48.79
2023-04-05T03:49:32.996Z,48.57
2023-04-05T03:52:42.189Z,49.55
2023-04-05T03:55:49.723Z,48.54
2023-04-05T03:58:59.528Z,48.40
2023-04-05T04:02:08.008Z,49.37
2023-04-05T04:05:15.982Z,48.52
2023-04-05T04:08:25.249Z,48.97
2023-04-05T04:11:31.720Z,48.59
2023-04-05T04:14:40.673Z,49.08
2023-04-05T04:18:28.078Z,49.27
2023-04-05T04:22:20.851Z,49.45
2023-04-05T04:25:50.916Z,48.83
2023-04-05T04:29:13.159Z,49.26
2023-04-05T04:32:58.311Z,49.15
2023-04-05T04:36:13.928Z,49.12
2023-04-05T04:40:06.806Z,49.75
2023-04-05T04:43:34.206Z,48.72
2023-04-05T04:46:55.271Z,49.03
2023-04-05T04:50:20.169Z,50.06
2023-04-05T04:53:26.549Z,49.96
2023-04-05T04:56:32.147Z,49.01
2023-04-05T04:59:42.480Z,49.42
2023-04-05T05:02:48.224Z,49.57
2023-04-05T05:05:57.327Z,49.60
2023-04-05T05:09:08.835Z,49.56
2023-04-05T05:12:27.023Z,50.73
2023-04-05T05:15:35.303Z,49.89
2023-04-05T05:18:43.499Z,49.83
2023-04-05T05:21:50.409Z,50.38
2023-04-05T05:24:56.761Z,50.85
2023-04-05T05:28:02.261Z,49.91
2023-04-05T05:31:12.473Z,49.93
2023-04-05T05:34:18.010Z,49.26
2023-04-05T05:37:34.403Z,48.97
2023-04-05T05:40:39.990Z,49.34
2023-04-05T05:43:47.247Z,48.40
2023-04-05T05:46:55.583Z,48.51
2023-04-05T05:50:04.328Z,47.94
2023-04-05T05:53:09.885Z,48.37
2023-04-05T05:56:22.298Z,47.91
2023-04-05T05:59:28.114Z,48.27
2023-04-05T06:02:37.407Z,48.95
2023-04-05T06:05:44.113Z,48.74
2023-04-05T06:08:51.602Z,48.61
2023-04-05T06:11:58.779Z,48.19
2023-04-05T06:15:06.089Z,48.12
2023-04-05T06:18:14.653Z,48.41
2023-04-05T06:21:21.038Z,48.74
2023-04-05T06:24:26.744Z,48.44
2023-04-05T06:27:33.129Z,48.62
2023-04-05T06:30:38.691Z,48.37
2023-04-05T06:33:48.272Z,48.08
2023-04-05T06:36:53.809Z,48.55
2023-04-05T06:40:00.244Z,48.20
2023-04-05T06:43:05.717Z,48.50
2023-04-05T06:46:14.040Z,48.69
2023-04-05T06:49:22.398Z,47.77
2023-04-05T06:52:28.710Z,48.23
2023-04-05T06:55:34.286Z,48.08
2023-04-05T06:58:40.800Z,47.80
2023-04-05T07:01:46.495Z,46.94
2023-04-05T07:05:00.822Z,47.09
2023-04-05T07:08:06.308Z,47.12
2023-04-05T07:11:12.719Z,47.22
2023-04-05T07:14:18.357Z,47.14
2023-04-05T07:17:24.999Z,46.52
2023-04-05T07:20:33.308Z,46.01
2023-04-05T07:23:39.895Z,46.48
2023-04-05T07:26:45.849Z,46.82
2023-04-05T07:29:52.360Z,45.92
2023-04-05T07:32:58.815Z,45.92
2023-04-05T07:36:08.734Z,45.94
2023-04-05T07:39:14.348Z,45.47
2023-04-05T07:42:22.098Z,45.87
2023-04-05T07:45:28.368Z,45.86
2023-04-05T07:48:35.317Z,45.86
2023-04-05T07:51:43.828Z,45.70
2023-04-05T07:54:50.310Z,45.94
2023-04-05T07:57:55.774Z,45.06
2023-04-05T08:01:03.874Z,44.67
2023-04-05T08:04:09.441Z,44.51
2023-04-05T08:07:18.874Z,42.63
2023-04-05T08:10:24.371Z,42.63
2023-04-05T08:13:30.712Z,41.94
2023-04-05T08:16:36.916Z,41.51
2023-04-05T08:19:43.448Z,40.26
2023-04-05T08:22:51.764Z,39.73
2023-04-05T08:25:58.286Z,39.99
2023-04-05T08:29:04.166Z,37.79
2023-04-05T08:32:10.849Z,38.11
2023-04-05T08:35:16.779Z,38.03
2023-04-05T08:38:26.777Z,37.90
2023-04-05T08:41:43.946Z,37.59
2023-04-05T08:44:55.870Z,36.05
2023-04-05T08:48:02.295Z,36.33
2023-04-05T08:51:09.544Z,37.20
2023-04-05T08:54:17.942Z,36.46
2023-04-05T08:57:30.121Z,35.98
2023-04-05T09:00:37.163Z,35.61
2023-04-05T09:03:47.517Z,36.19
2023-04-05T09:06:55.327Z,35.47
2023-04-05T09:10:09.715Z,35.39
2023-04-05T09:13:15.252Z,35.81
2023-04-05T09:16:24.248Z,36.45
2023-04-05T09:19:29.730Z,36.38
2023-04-05T09:22:47.309Z,36.34
2023-04-05T09:25:55.661Z,36.89
2023-04-05T09:29:02.377Z,37.02
2023-04-05T09:32:09.970Z,37.09
2023-04-05T09:35:24.467Z,37.44
2023-04-05T09:38:51.523Z,36.74
2023-04-05T09:42:12.148Z,36.71
2023-04-05T09:45:22.739Z,36.25
2023-04-05T09:48:50.621Z,35.71
2023-04-05T09:51:56.393Z,35.25
2023-04-05T09:55:07.078Z,35.63
2023-04-05T09:58:25.199Z,36.25
2023-04-05T10:01:34.512Z,36.12
2023-04-05T10:04:44.452Z,36.12
2023-04-05T10:07:51.238Z,35.77
2023-04-05T10:10:59.664Z,35.98
2023-04-05T10:14:11.537Z,35.82
2023-04-05T10:17:28.042Z,35.35
2023-04-05T10:20:43.421Z,34.85
2023-04-05T10:23:58.278Z,34.05
2023-04-05T10:27:12.205Z,34.72
2023-04-05T10:30:22.135Z,33.75
2023-04-05T10:33:42.349Z,34.83
2023-04-05T10:37:00.343Z,35.63
2023-04-05T10:40:12.969Z,35.30
2023-04-05T10:43:27.067Z,34.62
2023-04-05T10:46:37.403Z,34.24
2023-04-05T10:49:49.566Z,34.54
2023-04-05T10:52:57.028Z,34.45
2023-04-05T10:56:04.650Z,34.63
2023-04-05T10:59:15.314Z,33.73
2023-04-05T11:02:24.790Z,34.20
2023-04-05T11:05:36.646Z,34.96
2023-04-05T11:08:47.172Z,34.77
2023-04-05T11:11:57.297Z,33.64
2023-04-05T11:15:33.522Z,35.04
2023-04-05T11:18:49.611Z,33.76
2023-04-05T11:22:05.670Z,34.03
2023-04-05T11:25:28.119Z,33.71
2023-04-05T11:28:40.826Z,33.74
2023-04-05T11:32:02.603Z,34.41
2023-04-05T11:35:23.260Z,34.24
2023-04-05T11:38:29.823Z,33.93
2023-04-05T11:41:37.599Z,32.39
2023-04-05T11:44:48.749Z,32.77
2023-04-05T11:47:54.779Z,32.88
2023-04-05T11:51:05.032Z,32.42
2023-04-05T11:54:10.866Z,32.54
2023-04-05T11:57:22.660Z,33.43
2023-04-05T12:00:28.516Z,33.62
2023-04-05T12:03:35.412Z,34.32
2023-04-05T12:06:43.912Z,34.17
2023-04-05T12:10:11.979Z,34.27
2023-04-05T12:13:17.473Z,34.45
2023-04-05T12:16:23.924Z,34.17
2023-04-05T12:19:34.221Z,33.80
2023-04-05T12:22:46.582Z,33.63
2023-04-05T12:25:54.384Z,32.21
2023-04-05T12:29:03.054Z,33.94
2023-04-05T12:32:09.315Z,32.17
2023-04-05T12:35:18.855Z,33.52
2023-04-05T12:38:30.503Z,33.65
2023-04-05T12:41:37.772Z,32.31
2023-04-05T12:44:46.889Z,32.31
2023-04-05T12:47:56.724Z,33.69
2023-04-05T12:51:07.338Z,31.63
2023-04-05T12:54:24.112Z,32.10
2023-04-05T12:57:35.036Z,31.62
2023-04-05T13:00:41.729Z,32.01
2023-04-05T13:03:49.649Z,31.65
2023-04-05T13:06:56.659Z,32.91
2023-04-05T13:10:05.256Z,32.99
2023-04-05T13:13:11.639Z,31.87
2023-04-05T13:16:17.257Z,32.65
2023-04-05T13:19:23.961Z,32.44
2023-04-05T13:22:29.533Z,31.57
2023-04-05T13:25:39.555Z,32.05
2023-04-05T13:28:45.459Z,32.70
2023-04-05T13:31:51.991Z,31.95
2023-04-05T13:34:57.589Z,32.11
2023-04-05T13:38:04.793Z,32.95
2023-04-05T13:41:16.226Z,32.12
2023-04-05T13:44:22.980Z,31.51
2023-04-05T13:47:28.505Z,30.85
2023-04-05T13:50:35.057Z,30.81
2023-04-05T13:53:40.615Z,30.72
2023-04-05T13:56:49.817Z,31.80
2023-04-05T13:59:55.488Z,31.52
2023-04-05T14:03:02.004Z,31.85
2023-04-05T14:06:10.705Z,32.17
2023-04-05T14:09:17.060Z,31.97
2023-04-05T14:12:25.592Z,33.25
2023-04-05T14:15:33.465Z,33.21
2023-04-05T14:18:39.229Z,32.90
2023-04-05T14:21:46.082Z,32.87
2023-04-05T14:24:51.713Z,31.43
2023-04-05T14:28:01.129Z,32.02
2023-04-05T14:31:07.070Z,32.73
2023-04-05T14:34:13.995Z,32.86
2023-04-05T14:37:20.097Z,32.13
2023-04-05T14:40:26.698Z,32.56
2023-04-05T14:43:35.269Z,31.38
2023-04-05T14:46:41.788Z,31.12
2023-04-05T14:49:47.453Z,31.47
2023-04-05T14:52:55.646Z,30.80
2023-04-05T14:56:01.399Z,30.74
2023-04-05T14:59:10.762Z,30.48
2023-04-05T15:02:17.031Z,30.99
2023-04-05T15:05:23.976Z,30.78
2023-04-05T15:08:29.948Z,31.44
2023-04-05T15:11:38.885Z,31.43
2023-04-05T15:14:49.032Z,30.30
2023-04-05T15:17:55.593Z,29.94
2023-04-05T15:21:01.766Z,29.87
2023-04-05T15:24:10.506Z,30.09
2023-04-05T15:27:16.254Z,31.43
2023-04-05T15:30:25.712Z,30.92
2023-04-05T15:33:31.433Z,30.91
2023-04-05T15:36:37.887Z,31.72
2023-04-05T15:39:43.641Z,31.73
2023-04-05T15:42:50.326Z,30.92
2023-04-05T15:45:58.761Z,31.43
2023-04-05T15:49:05.387Z,31.61
2023-04-05T15:52:11.697Z,30.90
2023-04-05T15:55:18.186Z,31.27
2023-04-05T15:58:23.990Z,32.17
2023-04-05T16:01:33.787Z,31.12
2023-04-05T16:04:39.763Z,32.03
2023-04-05T16:07:46.484Z,31.80
2023-04-05T16:10:52.420Z,31.85
2023-04-05T16:13:58.989Z,32.35
2023-04-05T16:17:07.558Z,32.23
2023-04-05T16:20:15.033Z,31.89
2023-04-05T16:23:20.726Z,31.88
2023-04-05T16:26:27.557Z,31.71
2023-04-05T16:29:33.452Z,32.33
2023-04-05T16:32:42.875Z,31.06
2023-04-05T16:35:48.985Z,31.69
2023-04-05T16:38:55.501Z,31.59
2023-04-05T16:42:01.275Z,32.36
2023-04-05T16:45:09.578Z,32.36
2023-04-05T16:48:17.993Z,33.36
2023-04-05T16:51:24.522Z,33.20
2023-04-05T16:54:30.299Z,32.89
2023-04-05T16:57:37.543Z,33.78
2023-04-05T17:00:43.969Z,33.34
2023-04-05T17:03:53.375Z,34.57
2023-04-05T17:06:59.306Z,33.52
2023-04-05T17:10:05.845Z,34.04
2023-04-05T17:13:11.863Z,33.24
2023-04-05T17:16:18.515Z,34.18
2023-04-05T17:19:27.764Z,35.11
2023-04-05T17:22:34.663Z,34.95
2023-04-05T17:25:40.291Z,34.34
2023-04-05T17:28:47.436Z,35.52
2023-04-05T17:31:53.842Z,35.73
2023-04-05T17:35:03.241Z,35.74
2023-04-05T17:38:08.945Z,35.44
2023-04-05T17:41:16.008Z,35.49
2023-04-05T17:44:21.669Z,35.90
2023-04-05T17:47:28.358Z,36.79
2023-04-05T17:50:39.040Z,35.83
2023-04-05T17:53:45.797Z,36.33
2023-04-05T17:56:52.252Z,36.34
2023-04-05T17:59:59.534Z,37.38
2023-04-05T18:03:08.237Z,36.88
2023-04-05T18:06:20.316Z,36.15
2023-04-05T18:09:26.508Z,37.10
2023-04-05T18:12:32.991Z,36.95
2023-04-05T18:15:38.752Z,36.44
2023-04-05T18:18:45.264Z,36.40
2023-04-05T18:21:54.030Z,36.76
2023-04-05T18:25:00.569Z,36.82
2023-04-05T18:28:15.773Z,37.02
2023-04-05T18:31:28.869Z,37.75
2023-04-05T18:34:35.010Z,37.38
2023-04-05T18:37:44.383Z,37.61
2023-04-05T18:40:50.754Z,38.22
2023-04-05T18:43:57.626Z,38.08
2023-04-05T18:47:05.108Z,38.52
2023-04-05T18:50:13.015Z,38.56
2023-04-05T18:53:21.668Z,38.46
2023-04-05T18:56:30.129Z,38.75
2023-04-05T18:59:35.856Z,38.79
2023-04-05T19:02:42.433Z,38.87
2023-04-05T19:05:53.721Z,38.69
2023-04-05T19:09:03.300Z,38.77
2023-04-05T19:12:09.888Z,38.87
2023-04-05T19:15:17.213Z,39.18
2023-04-05T19:18:26.170Z,39.19
2023-04-05T19:21:32.689Z,39.17
2023-04-05T19:24:43.629Z,39.69
2023-04-05T19:27:50.673Z,39.48
2023-04-05T19:30:57.068Z,39.73
2023-04-05T19:34:03.752Z,39.84
2023-04-05T19:37:09.951Z,39.32
2023-04-05T19:40:19.725Z,39.57
2023-04-05T19:43:26.798Z,39.83
2023-04-05T19:46:34.082Z,39.72
2023-04-05T19:49:44.579Z,40.54
2023-04-05T19:52:51.945Z,40.06
2023-04-05T19:56:00.461Z,40.26
2023-04-05T19:59:31.461Z,40.10
2023-04-05T20:02:40.194Z,40.46
2023-04-05T20:06:13.053Z,40.37
2023-04-05T20:09:18.897Z,40.79
2023-04-05T20:12:28.306Z,40.88
2023-04-05T20:15:39.869Z,40.87
2023-04-05T20:18:50.996Z,41.14
2023-04-05T20:21:56.679Z,41.07
2023-04-05T20:25:04.931Z,41.35
2023-04-05T20:28:39.012Z,41.53
2023-04-05T20:31:46.331Z,41.63
2023-04-05T20:34:52.314Z,41.68
2023-04-05T20:37:59.201Z,41.92
2023-04-05T20:41:05.912Z,42.05
2023-04-05T20:44:15.286Z,41.94
2023-04-05T20:47:21.174Z,41.97
2023-04-05T20:50:27.873Z,42.34
2023-04-05T20:53:34.770Z,42.43
2023-04-05T20:56:41.311Z,42.43
2023-04-05T20:59:49.749Z,42.34
2023-04-05T21:02:56.315Z,42.62
2023-04-05T21:06:04.240Z,42.61
2023-04-05T21:09:10.895Z,42.59
2023-04-05T21:12:16.671Z,42.39
2023-04-05T21:15:31.283Z,42.68
2023-04-05T21:18:37.233Z,42.57
2023-04-05T21:21:44.005Z,42.80
2023-04-05T21:24:49.935Z,42.50
2023-04-05T21:27:56.743Z,42.67
2023-04-05T21:31:05.277Z,42.97
2023-04-05T21:34:11.784Z,43.05
2023-04-05T21:37:17.465Z,42.81
2023-04-05T21:40:24.736Z,42.98
2023-04-05T21:43:30.513Z,42.80
2023-04-05T21:46:40.210Z,43.24
2023-04-05T21:49:45.921Z,43.14
2023-04-05T21:52:52.470Z,43.25
2023-04-05T21:55:58.130Z,43.58
2023-04-05T21:59:04.658Z,43.44
2023-04-05T22:02:13.235Z,43.63
2023-04-05T22:05:34.029Z,43.70
2023-04-05T22:08:42.645Z,43.70
2023-04-05T22:11:49.311Z,43.75
2023-04-05T22:14:55.016Z,43.91
2023-04-05T22:18:05.876Z,43.98
2023-04-05T22:21:11.706Z,44.26
2023-04-05T22:24:18.426Z,44.05
2023-04-05T22:27:24.093Z,44.56
2023-04-05T22:30:42.803Z,44.27
2023-04-05T22:33:51.960Z,44.40
2023-04-05T22:36:58.474Z,44.53
2023-04-05T22:40:04.329Z,44.75
2023-04-05T22:43:12.095Z,45.00
2023-04-05T22:46:17.709Z,45.20
2023-04-05T22:49:27.179Z,45.61
2023-04-05T22:52:32.819Z,45.49
2023-04-05T22:55:40.387Z,45.45
2023-04-05T22:58:46.080Z,45.90
2023-04-05T23:01:52.632Z,46.24
2023-04-05T23:05:01.882Z,46.49
2023-04-05T23:08:09.020Z,46.58
2023-04-05T23:11:14.918Z,46.12
2023-04-05T23:14:21.382Z,47.05
2023-04-05T23:17:27.242Z,46.66
2023-04-05T23:20:36.633Z,46.55
2023-04-05T23:23:42.231Z,46.57
2023-04-05T23:26:48.954Z,46.74
2023-04-05T23:29:54.612Z,47.40
2023-04-05T23:33:01.479Z,47.45
2023-04-05T23:36:11.917Z,47.31
2023-04-05T23:39:19.578Z,48.09
2023-04-05T23:42:25.216Z,47.73
2023-04-05T23:45:31.710Z,47.49
2023-04-05T23:48:37.512Z,47.81
2023-04-05T23:51:46.851Z,47.90
2023-04-05T23:54:52.547Z,48.12
2023-04-05T23:58:00.413Z,48.71
